Terminal Aerodrome Forecast
Issued by NWS

Home | Current Version | Previous Version | Text Only | Print | Product List | Glossary On
Versions: 1 2 3 4 5 6 7 8 9 10 11 12 13 14 15 16 17 18
000
FTUS45 KABQ 301741
TAFLVS
TAF
KLVS 301741Z 3018/3118 19010G18KT P6SM SCT050
     FM302030 18013KT P6SM VCTS SCT070CB BKN120
      TEMPO 3021/3024 VRB20G30KT -SHRA BKN070
     FM310000 15010KT P6SM VCSH BKN080
     FM310200 18008KT P6SM SCT050
     FM311000 19008KT P6SM SCT025=

USA.gov is the U.S. government's official web portal to all federal, state and local government web resources and services.